Exira, Iowa
Current Conditions -  °F | °C
As of 12:35 PM on Wednesday 26 Nov 2014 (Local Time) from KADU Reporting Station
Haze Haze  
Wind Chill: 16°   Ceiling: Unl
Heat Index: 28°   Visibility: 4mi
Dew Point: 23°   Wind: 18mph
Humidity: 80%   Direction: 350°N
Pressure: 30.04"   Gusts: 23mph
Location:  41.59°N, 94.88°W
Report Text: KADU 261835Z AUTO 35016G20KT 4SM HZ SCT005 M02/M05 A3004 RMK AO2
Loading
Personal Weather Stations






























Interactive Weather Map New forecast layout! Learn more

10-Day Weather Forecast

Advertisements
Track Severe Weather on mobile